Time;durP1;ratioP1;P1;durP2;ratioP2;P2;SDS_P1;SDS_P2;PMS_P1;PMS_P2;Temp;Humidity;BMP_temperature;BMP_pressure;BME280_temperature;BME280_humidity;BME280_pressure;Samples;Min_cycle;Max_cycle;Signal;HPM_P1;HPM_P2
2022/12/19 00:02:12;;;;;;;40.75;16.13;;;-4.60;99.90;;;;;;5007576;28;20040;-58
2022/12/19 00:04:38;;;;;;;29.38;13.70;;;-4.60;99.90;;;;;;5007629;28;20040;-58
2022/12/19 00:07:03;;;;;;;42.63;17.08;;;-4.60;99.90;;;;;;5007761;28;20555;-58
2022/12/19 00:09:29;;;;;;;30.70;15.00;;;-4.50;99.90;;;;;;5008215;28;20022;-59
2022/12/19 00:11:54;;;;;;;41.53;18.60;;;-4.50;99.90;;;;;;4990635;28;20034;-58
2022/12/19 00:14:20;;;;;;;40.60;16.58;;;-4.50;99.90;;;;;;5007763;28;20490;-58
2022/12/19 00:16:46;;;;;;;41.45;17.05;;;-4.50;99.90;;;;;;5014049;28;20095;-56
2022/12/19 00:19:11;;;;;;;33.05;16.25;;;-4.50;99.90;;;;;;5006644;28;20026;-58
2022/12/19 00:21:37;;;;;;;44.67;18.10;;;-4.60;99.90;;;;;;4997700;28;20498;-57
2022/12/19 00:24:06;;;;;;;47.00;17.58;;;-4.60;99.90;;;;;;5007892;28;20033;-56
2022/12/19 00:26:35;;;;;;;47.55;17.60;;;-4.60;99.90;;;;;;5007129;28;20029;-58
2022/12/19 00:29:04;;;;;;;40.50;17.80;;;-4.60;99.90;;;;;;5006247;28;20091;-58
2022/12/19 00:31:32;;;;;;;44.75;16.50;;;-4.60;99.90;;;;;;5007747;28;20599;-57
2022/12/19 00:33:58;;;;;;;40.25;17.90;;;-4.60;99.90;;;;;;5006958;28;20166;-56
2022/12/19 00:36:27;;;;;;;42.72;17.73;;;-4.70;99.90;;;;;;5007076;28;20022;-57
2022/12/19 00:38:55;;;;;;;40.50;16.98;;;-4.70;99.90;;;;;;5007022;28;20060;-57
2022/12/19 00:41:23;;;;;;;46.28;16.90;;;-4.70;99.90;;;;;;5007135;28;20117;-58
2022/12/19 00:43:57;;;;;;;42.10;17.25;;;-4.70;99.90;;;;;;5007707;28;20034;-56
2022/12/19 00:46:24;;;;;;;37.13;15.55;;;-4.80;99.90;;;;;;5007189;28;20467;-58
2022/12/19 00:48:50;;;;;;;44.80;17.42;;;-4.80;99.90;;;;;;5005579;28;20168;-57
2022/12/19 00:51:21;;;;;;;40.28;17.75;;;-4.80;99.90;;;;;;5007515;28;20176;-58
2022/12/19 00:53:48;;;;;;;36.88;16.73;;;-4.90;99.90;;;;;;5006734;28;20064;-58
2022/12/19 00:56:23;;;;;;;35.38;16.52;;;-4.90;99.90;;;;;;5006509;28;20552;-57
2022/12/19 00:58:49;;;;;;;42.63;17.20;;;-5.00;99.90;;;;;;5007098;28;20042;-58
2022/12/19 01:01:20;;;;;;;39.03;17.48;;;-5.00;99.90;;;;;;5007377;28;20084;-58
2022/12/19 01:03:46;;;;;;;39.25;19.13;;;-5.00;99.90;;;;;;5006697;28;20018;-57
2022/12/19 01:06:11;;;;;;;43.72;19.02;;;-5.00;99.90;;;;;;5007613;28;20133;-58
2022/12/19 01:08:37;;;;;;;48.75;18.67;;;-5.10;99.90;;;;;;5006471;28;20109;-56
2022/12/19 01:11:04;;;;;;;39.92;18.02;;;-5.10;99.90;;;;;;5007058;28;20030;-56
2022/12/19 01:13:32;;;;;;;39.17;16.33;;;-5.10;99.90;;;;;;5006914;28;20026;-57
2022/12/19 01:16:03;;;;;;;42.78;18.15;;;-5.10;99.90;;;;;;5006972;28;20022;-57
2022/12/19 01:18:29;;;;;;;;;;;-5.10;99.90;;;;;;5007467;28;20120;-58
2022/12/19 01:21:02;;;;;;;37.67;16.42;;;-5.20;99.90;;;;;;5008226;28;20012;-56
2022/12/19 01:23:29;;;;;;;46.65;17.75;;;-5.20;99.90;;;;;;5007102;28;20029;-56
2022/12/19 01:25:55;;;;;;;51.50;19.33;;;-5.20;99.90;;;;;;5005308;28;20084;-56
2022/12/19 01:28:21;;;;;;;45.50;19.45;;;-5.20;99.90;;;;;;5008823;28;20577;-57
2022/12/19 01:30:47;;;;;;;46.10;17.45;;;-5.20;99.90;;;;;;5010564;28;20030;-57
2022/12/19 01:33:15;;;;;;;47.38;18.08;;;-5.20;99.90;;;;;;5010331;28;20026;-56
2022/12/19 01:35:42;;;;;;;39.65;17.30;;;-5.10;99.90;;;;;;5009395;28;20034;-57
2022/12/19 01:38:12;;;;;;;54.45;20.08;;;-5.10;99.90;;;;;;5009457;28;20064;-58
2022/12/19 01:40:38;;;;;;;50.17;18.48;;;-5.00;99.90;;;;;;5010460;28;20019;-56
2022/12/19 01:43:04;;;;;;;40.67;17.13;;;-5.00;99.90;;;;;;5009740;28;20108;-57
2022/12/19 01:45:34;;;;;;;42.88;17.83;;;-5.00;99.90;;;;;;5010701;28;20023;-57
2022/12/19 01:48:20;;;;;;;40.33;16.88;;;-5.00;99.90;;;;;;5009996;28;20026;-57
2022/12/19 01:50:57;;;;;;;47.17;18.75;;;-5.00;99.90;;;;;;5008900;28;20071;-58
2022/12/19 01:53:32;;;;;;;47.15;17.90;;;-4.90;99.90;;;;;;5009174;28;20037;-55
2022/12/19 01:55:59;;;;;;;43.72;17.10;;;-4.90;99.90;;;;;;5009789;28;20030;-56
2022/12/19 01:58:25;;;;;;;43.88;17.52;;;-4.90;99.90;;;;;;5010022;28;20040;-57
2022/12/19 02:00:50;;;;;;;44.20;17.27;;;-4.90;99.90;;;;;;5010781;28;20026;-57
2022/12/19 02:03:30;;;;;;;41.88;17.38;;;-4.80;99.90;;;;;;5010197;28;20502;-58
2022/12/19 02:05:58;;;;;;;38.85;16.90;;;-4.80;99.90;;;;;;5009601;28;20054;-58
2022/12/19 02:08:25;;;;;;;40.00;17.88;;;-4.80;99.90;;;;;;5008262;28;20096;-56
2022/12/19 02:10:50;;;;;;;46.40;18.27;;;-4.80;99.90;;;;;;5006909;28;20054;-56
2022/12/19 02:13:17;;;;;;;44.65;19.95;;;-4.80;99.90;;;;;;5009690;28;20066;-57
2022/12/19 02:15:56;;;;;;;49.85;21.23;;;-4.80;99.90;;;;;;5008643;28;20084;-57
2022/12/19 02:18:27;;;;;;;42.40;18.58;;;-4.80;99.90;;;;;;5009881;28;20052;-57
2022/12/19 02:21:20;;;;;;;45.15;17.70;;;-4.80;99.90;;;;;;5008984;28;20143;-56
2022/12/19 02:24:23;;;;;;;41.53;16.95;;;-4.80;99.90;;;;;;5009002;28;20045;-57
2022/12/19 02:26:51;;;;;;;41.53;18.38;;;-4.80;99.90;;;;;;5009638;28;20080;-58
2022/12/19 02:29:19;;;;;;;45.70;18.15;;;-4.80;99.90;;;;;;5009699;28;20056;-58
2022/12/19 02:31:51;;;;;;;42.15;18.60;;;-4.70;99.90;;;;;;5011023;28;20036;-57
2022/12/19 02:34:37;;;;;;;48.13;18.25;;;-4.70;99.90;;;;;;5008683;28;20061;-57
2022/12/19 02:37:31;;;;;;;41.70;18.67;;;-4.70;99.90;;;;;;5008512;28;20053;-56
2022/12/19 02:40:25;;;;;;;43.85;18.65;;;-4.70;99.90;;;;;;5005606;28;20045;-57
2022/12/19 02:42:58;;;;;;;54.80;17.60;;;-4.70;99.90;;;;;;5009871;28;20030;-57
2022/12/19 02:45:28;;;;;;;40.00;17.48;;;-4.70;99.90;;;;;;5009912;28;20099;-57
2022/12/19 02:47:55;;;;;;;44.60;17.30;;;-4.60;99.90;;;;;;5009697;28;20045;-56
2022/12/19 02:50:21;;;;;;;44.90;17.17;;;-4.70;99.90;;;;;;5009741;28;20057;-57
2022/12/19 02:52:48;;;;;;;40.40;16.27;;;-4.60;99.90;;;;;;5008954;28;20499;-56
2022/12/19 02:55:18;;;;;;;45.33;18.25;;;-4.60;99.90;;;;;;5007493;28;20040;-56
2022/12/19 02:58:04;;;;;;;40.42;17.42;;;-4.60;99.90;;;;;;5010149;28;20033;-56
2022/12/19 03:00:35;;;;;;;37.92;15.85;;;-4.70;99.90;;;;;;5008867;28;20040;-57
2022/12/19 03:03:26;;;;;;;32.03;16.15;;;-4.70;99.90;;;;;;5008642;28;20050;-57
2022/12/19 03:06:03;;;;;;;40.30;16.60;;;-4.70;99.90;;;;;;5008487;28;20040;-58
2022/12/19 03:08:55;;;;;;;44.60;17.63;;;-4.70;99.90;;;;;;5008097;28;20038;-56
2022/12/19 03:11:22;;;;;;;43.38;18.08;;;-4.70;99.90;;;;;;5003827;28;20037;-57
2022/12/19 03:13:55;;;;;;;44.22;17.33;;;-4.60;99.90;;;;;;5008473;28;20029;-56
2022/12/19 03:16:21;;;;;;;35.47;16.25;;;-4.70;99.90;;;;;;5008118;28;20828;-56
2022/12/19 03:18:48;;;;;;;44.75;19.60;;;-4.70;99.90;;;;;;5009025;28;20022;-56
2022/12/19 03:21:27;;;;;;;45.42;18.48;;;-4.70;99.90;;;;;;5008002;28;20053;-58
2022/12/19 03:23:54;;;;;;;40.75;17.27;;;-4.70;99.90;;;;;;4993600;28;20034;-57
2022/12/19 03:26:26;;;;;;;43.30;18.23;;;-4.70;99.90;;;;;;5008158;28;20116;-56
2022/12/19 03:29:01;;;;;;;50.80;19.55;;;-4.60;99.90;;;;;;5007944;28;20053;-55
2022/12/19 03:31:30;;;;;;;44.28;18.77;;;-4.70;99.90;;;;;;5007274;28;20026;-57
2022/12/19 03:34:07;;;;;;;42.05;17.23;;;-4.70;99.90;;;;;;5008579;28;20057;-56
2022/12/19 03:36:39;;;;;;;39.13;17.42;;;-4.60;99.90;;;;;;5008160;28;20026;-57
2022/12/19 03:39:08;;;;;;;42.70;18.65;;;-4.60;99.90;;;;;;5007620;28;20033;-56
2022/12/19 03:44:32;;;;;;;49.67;19.30;;;-4.60;99.90;;;;;;4971276;28;20030;-56
2022/12/19 03:47:14;;;;;;;37.45;16.88;;;-4.60;99.90;;;;;;5008468;28;20106;-57
2022/12/19 03:49:40;;;;;;;41.15;18.05;;;-4.60;99.90;;;;;;4987463;28;20022;-57
2022/12/19 03:52:19;;;;;;;41.50;17.60;;;-4.60;99.90;;;;;;5008038;28;20137;-57
2022/12/19 03:54:58;;;;;;;60.85;21.42;;;-4.60;99.90;;;;;;5008319;28;20037;-56
2022/12/19 03:57:31;;;;;;;46.90;19.20;;;-4.50;99.90;;;;;;5008412;28;20572;-57
2022/12/19 04:00:05;;;;;;;57.67;19.63;;;-4.50;99.90;;;;;;4995166;28;20117;-59
2022/12/19 04:02:35;;;;;;;51.00;19.58;;;-4.60;99.90;;;;;;4994785;28;20026;-57
2022/12/19 04:05:09;;;;;;;46.28;19.23;;;-4.50;99.90;;;;;;5008235;28;20033;-58
2022/12/19 04:07:37;;;;;;;45.65;18.17;;;-4.50;99.90;;;;;;4992667;28;20482;-56
2022/12/19 04:10:06;;;;;;;52.47;20.20;;;-4.50;99.90;;;;;;5008207;28;20646;-56
2022/12/19 04:12:39;;;;;;;52.65;20.80;;;-4.50;99.90;;;;;;5007506;28;20109;-56
2022/12/19 04:15:06;;;;;;;53.90;20.88;;;-4.50;99.90;;;;;;5007678;28;20097;-57
2022/12/19 04:17:47;;;;;;;50.00;19.50;;;-4.40;99.90;;;;;;5007005;28;20026;-57
2022/12/19 04:20:21;;;;;;;45.47;19.85;;;-4.40;99.90;;;;;;5006942;28;20050;-54
2022/12/19 04:22:53;;;;;;;48.20;19.67;;;-4.40;99.90;;;;;;4985046;28;20092;-57
2022/12/19 04:25:36;;;;;;;43.92;17.05;;;-4.40;99.90;;;;;;4995537;28;20037;-57
2022/12/19 04:28:12;;;;;;;52.35;20.40;;;-4.40;99.90;;;;;;4995543;28;20086;-58
2022/12/19 04:30:40;;;;;;;54.70;19.48;;;-4.40;99.90;;;;;;5006411;28;20096;-58
2022/12/19 04:33:05;;;;;;;45.13;18.67;;;-4.40;99.90;;;;;;5007050;28;20029;-57
2022/12/19 04:35:32;;;;;;;52.40;19.58;;;-4.40;99.90;;;;;;4995642;28;20548;-58
2022/12/19 04:37:58;;;;;;;48.15;21.77;;;-4.40;99.90;;;;;;4991910;28;20041;-56
2022/12/19 04:40:23;;;;;;;46.08;18.58;;;-4.40;99.90;;;;;;5007498;28;20034;-57
2022/12/19 04:42:49;;;;;;;48.72;19.02;;;-4.40;99.90;;;;;;5007500;28;20038;-56
2022/12/19 04:45:16;;;;;;;57.78;22.02;;;-4.40;99.90;;;;;;4994634;28;20050;-55
2022/12/19 04:47:42;;;;;;;53.15;21.45;;;-4.40;99.90;;;;;;5006899;28;20034;-58
2022/12/19 04:50:09;;;;;;;51.78;18.40;;;-4.40;99.90;;;;;;5007012;28;20030;-57
2022/12/19 04:52:34;;;;;;;49.42;20.45;;;-4.30;99.90;;;;;;5005207;28;20504;-56
2022/12/19 04:55:00;;;;;;;46.97;19.80;;;-4.30;99.90;;;;;;5007824;28;20021;-56
2022/12/19 04:57:29;;;;;;;51.70;19.55;;;-4.30;99.90;;;;;;5007183;28;20108;-56
2022/12/19 04:59:55;;;;;;;52.47;21.17;;;-4.30;99.90;;;;;;5006215;28;20076;-57
2022/12/19 05:02:20;;;;;;;49.40;19.88;;;-4.30;99.90;;;;;;4991026;28;20391;-56
2022/12/19 05:04:46;;;;;;;55.63;21.35;;;-4.30;99.90;;;;;;4992846;28;20026;-57
2022/12/19 05:07:12;;;;;;;51.03;21.73;;;-4.20;99.90;;;;;;5011250;28;20025;-57
2022/12/19 05:09:38;;;;;;;46.33;19.95;;;-4.20;99.90;;;;;;5010514;28;20114;-56
2022/12/19 05:12:05;;;;;;;44.90;19.80;;;-4.20;99.90;;;;;;5010422;28;20457;-56
2022/12/19 05:14:31;;;;;;;60.13;23.27;;;-4.20;99.90;;;;;;5002797;28;20033;-56
2022/12/19 05:16:56;;;;;;;51.35;20.73;;;-4.20;99.90;;;;;;5010378;28;20121;-57
2022/12/19 05:19:22;;;;;;;49.38;19.13;;;-4.20;99.90;;;;;;5010708;28;20030;-58
2022/12/19 05:21:48;;;;;;;60.65;19.73;;;-4.20;99.90;;;;;;5010711;28;20026;-57
2022/12/19 05:24:13;;;;;;;55.75;20.92;;;-4.20;99.90;;;;;;5010682;28;20037;-58
2022/12/19 05:26:39;;;;;;;53.85;22.02;;;-4.20;99.90;;;;;;5008843;28;20053;-56
2022/12/19 05:29:04;;;;;;;52.28;20.10;;;-4.20;99.90;;;;;;5010285;28;20026;-56
2022/12/19 05:31:30;;;;;;;65.38;21.23;;;-4.20;99.90;;;;;;5011113;28;20029;-57
2022/12/19 05:33:56;;;;;;;51.10;21.10;;;-4.20;99.90;;;;;;5010431;28;20079;-55
2022/12/19 05:36:22;;;;;;;59.75;22.65;;;-4.20;99.90;;;;;;5010952;28;20018;-57
2022/12/19 05:38:48;;;;;;;51.28;19.35;;;-4.10;99.90;;;;;;5009780;28;20049;-57
2022/12/19 05:41:16;;;;;;;46.28;19.67;;;-4.10;99.90;;;;;;5010241;28;20026;-56
2022/12/19 05:43:43;;;;;;;58.70;20.15;;;-4.10;99.90;;;;;;5009790;28;20034;-57
2022/12/19 05:46:09;;;;;;;44.78;19.33;;;-4.10;99.90;;;;;;5008527;28;20104;-56
2022/12/19 05:48:35;;;;;;;52.63;20.80;;;-4.10;99.90;;;;;;5010786;28;20109;-56
2022/12/19 05:51:01;;;;;;;50.28;20.40;;;-4.00;99.90;;;;;;5008900;28;20044;-57
2022/12/19 05:53:27;;;;;;;49.90;21.23;;;-4.00;99.90;;;;;;5010101;28;20030;-57
2022/12/19 05:56:05;;;;;;;50.33;20.23;;;-4.00;99.90;;;;;;5009517;28;20052;-56
2022/12/19 05:58:32;;;;;;;53.15;20.58;;;-4.00;99.90;;;;;;5010221;28;20128;-57
2022/12/19 06:01:06;;;;;;;52.17;20.40;;;-3.90;99.90;;;;;;5008516;28;20034;-57
2022/12/19 06:03:32;;;;;;;57.92;20.67;;;-3.90;99.90;;;;;;5010573;28;20371;-57
2022/12/19 06:06:02;;;;;;;52.13;20.30;;;-3.90;99.90;;;;;;5010047;28;20108;-58
2022/12/19 06:08:28;;;;;;;51.67;20.45;;;-3.90;99.90;;;;;;5007220;28;20076;-57
2022/12/19 06:10:54;;;;;;;54.80;20.80;;;-3.90;99.90;;;;;;5010331;28;20042;-57
2022/12/19 06:13:19;;;;;;;53.35;20.55;;;-3.90;99.90;;;;;;5009713;28;20866;-58
2022/12/19 06:15:45;;;;;;;39.42;20.60;;;-3.90;99.90;;;;;;5010356;28;20018;-57
2022/12/19 06:18:10;;;;;;;57.65;22.38;;;-3.90;99.90;;;;;;5009513;28;20441;-57
2022/12/19 06:20:36;;;;;;;49.20;20.80;;;-3.80;99.90;;;;;;5010381;28;20028;-57
2022/12/19 06:23:01;;;;;;;50.20;20.17;;;-3.80;99.90;;;;;;5009972;28;20038;-57
2022/12/19 06:25:27;;;;;;;55.38;21.10;;;-3.80;99.90;;;;;;5009411;28;20463;-58
2022/12/19 06:27:53;;;;;;;51.15;21.98;;;-3.80;99.90;;;;;;5010858;28;20083;-57
2022/12/19 06:30:18;;;;;;;51.60;21.08;;;-3.80;99.90;;;;;;5009727;28;20030;-57
2022/12/19 06:32:44;;;;;;;52.47;20.63;;;-3.80;99.90;;;;;;5009950;28;20037;-57
2022/12/19 06:35:10;;;;;;;46.20;20.95;;;-3.80;99.90;;;;;;5009589;28;20033;-56
2022/12/19 06:37:35;;;;;;;46.58;18.92;;;-3.90;99.90;;;;;;5009935;28;20486;-58
2022/12/19 06:40:01;;;;;;;41.67;17.90;;;-3.90;99.90;;;;;;5009631;28;20108;-56
2022/12/19 06:42:26;;;;;;;55.53;22.08;;;-3.80;99.90;;;;;;5010520;28;20378;-57
2022/12/19 06:44:53;;;;;;;57.05;21.67;;;-3.80;99.90;;;;;;5010399;28;20041;-58
2022/12/19 06:47:21;;;;;;;51.55;21.45;;;-3.80;99.90;;;;;;5007610;28;20026;-57
2022/12/19 06:49:47;;;;;;;42.80;20.05;;;-3.80;99.90;;;;;;4992496;28;20837;-55
2022/12/19 06:52:14;;;;;;;50.13;19.75;;;-3.80;99.90;;;;;;5008928;28;20092;-56
2022/12/19 06:54:40;;;;;;;50.50;22.17;;;-3.80;99.90;;;;;;5009609;28;20369;-56
2022/12/19 06:57:06;;;;;;;57.80;22.25;;;-3.80;99.90;;;;;;5009107;28;20030;-57
2022/12/19 06:59:32;;;;;;;56.13;20.52;;;-3.80;99.90;;;;;;4993083;28;20034;-57
2022/12/19 07:02:25;;;;;;;49.72;22.10;;;-3.80;99.90;;;;;;4992874;28;20033;-58
2022/12/19 07:05:03;;;;;;;47.25;21.67;;;-3.80;99.90;;;;;;5008582;28;20034;-56
2022/12/19 07:07:29;;;;;;;55.45;21.77;;;-3.80;99.90;;;;;;5009216;28;20022;-56
2022/12/19 07:09:54;;;;;;;57.80;23.70;;;-3.80;99.90;;;;;;5008357;28;20045;-57
2022/12/19 07:12:20;;;;;;;58.67;23.15;;;-3.80;99.90;;;;;;5008936;28;20063;-57
2022/12/19 07:14:45;;;;;;;53.97;22.50;;;-3.80;99.90;;;;;;5008319;28;20490;-57
2022/12/19 07:17:11;;;;;;;55.17;23.00;;;-3.70;99.90;;;;;;5008443;28;20101;-57
2022/12/19 07:19:38;;;;;;;56.15;23.75;;;-3.70;99.90;;;;;;5008334;28;20084;-57
2022/12/19 07:22:05;;;;;;;67.15;23.05;;;-3.70;99.90;;;;;;5008140;28;20156;-57
2022/12/19 07:24:31;;;;;;;45.75;20.88;;;-3.70;99.90;;;;;;5008286;28;20128;-56
2022/12/19 07:26:57;;;;;;;54.08;22.58;;;-3.70;99.90;;;;;;5007452;28;20037;-57
2022/12/19 07:29:23;;;;;;;51.35;21.17;;;-3.70;99.90;;;;;;5010829;28;20037;-56
2022/12/19 07:31:48;;;;;;;63.10;22.52;;;-3.70;99.90;;;;;;5007510;28;20026;-57
2022/12/19 07:34:14;;;;;;;46.55;21.33;;;-3.70;99.90;;;;;;5008351;28;20038;-56
2022/12/19 07:36:39;;;;;;;51.90;22.63;;;-3.70;99.90;;;;;;5008553;28;20096;-56
2022/12/19 07:39:05;;;;;;;58.55;23.00;;;-3.70;99.90;;;;;;5007230;28;20018;-57
2022/12/19 07:41:31;;;;;;;56.50;22.75;;;-3.60;99.90;;;;;;5008488;28;20030;-56
2022/12/19 07:43:56;;;;;;;51.30;21.23;;;-3.60;99.90;;;;;;5007674;28;20076;-57
2022/12/19 07:46:22;;;;;;;62.53;25.40;;;-3.60;99.90;;;;;;5007841;28;20100;-58
2022/12/19 07:48:47;;;;;;;52.50;22.00;;;-3.60;99.90;;;;;;5007614;28;20755;-56
2022/12/19 07:51:13;;;;;;;55.78;24.13;;;-3.50;99.90;;;;;;5006728;28;20026;-57
2022/12/19 07:53:39;;;;;;;59.38;23.58;;;-3.50;99.90;;;;;;5008022;28;20121;-56
2022/12/19 07:56:05;;;;;;;58.40;22.05;;;-3.50;99.90;;;;;;5007231;28;20057;-57
2022/12/19 07:58:30;;;;;;;50.47;21.30;;;-3.50;99.90;;;;;;5006912;28;20069;-57
2022/12/19 08:00:57;;;;;;;60.70;24.52;;;-3.40;99.90;;;;;;5005000;28;20029;-57
2022/12/19 08:03:24;;;;;;;55.70;24.42;;;-3.40;99.90;;;;;;5008067;28;20118;-56
2022/12/19 08:05:49;;;;;;;66.68;24.65;;;-3.40;99.90;;;;;;5007122;28;20842;-56
2022/12/19 08:08:16;;;;;;;60.70;22.77;;;-3.30;99.90;;;;;;5007469;28;20030;-57
2022/12/19 08:10:41;;;;;;;68.45;24.95;;;-3.30;99.90;;;;;;5007649;28;20033;-57
2022/12/19 08:13:07;;;;;;;61.67;26.02;;;-3.30;99.90;;;;;;5006938;28;20018;-56
2022/12/19 08:15:33;;;;;;;66.68;25.30;;;-3.20;99.90;;;;;;4993588;28;20018;-56
2022/12/19 08:17:59;;;;;;;54.80;22.65;;;-3.20;99.90;;;;;;5007362;28;20029;-57
2022/12/19 08:20:24;;;;;;;63.15;24.15;;;-3.10;99.90;;;;;;5008238;28;20076;-56
2022/12/19 08:22:50;;;;;;;60.67;26.17;;;-3.10;99.90;;;;;;5008027;28;20474;-56
2022/12/19 08:25:16;;;;;;;64.28;25.23;;;-3.10;99.90;;;;;;5007998;28;20029;-55
2022/12/19 08:27:41;;;;;;;56.90;22.98;;;-3.00;99.90;;;;;;5007030;28;20046;-56
2022/12/19 08:30:08;;;;;;;59.55;24.58;;;-3.00;99.90;;;;;;5007302;28;20387;-57
2022/12/19 08:32:33;;;;;;;64.68;24.25;;;-3.00;99.90;;;;;;5007811;28;20030;-56
2022/12/19 08:34:59;;;;;;;58.83;25.58;;;-3.00;99.90;;;;;;5007040;28;20030;-55
2022/12/19 08:37:25;;;;;;;66.45;25.52;;;-2.90;99.90;;;;;;5009311;28;20030;-58
2022/12/19 08:39:50;;;;;;;61.20;25.55;;;-2.90;99.90;;;;;;5011305;28;20070;-57
2022/12/19 08:42:16;;;;;;;69.68;26.80;;;-2.80;99.90;;;;;;5010790;28;20037;-57
2022/12/19 08:44:42;;;;;;;64.47;24.33;;;-2.80;99.90;;;;;;5011621;28;20529;-58
2022/12/19 08:47:08;;;;;;;75.70;29.25;;;-2.70;99.90;;;;;;5010564;28;20037;-58
2022/12/19 08:49:34;;;;;;;65.50;23.85;;;-2.70;99.90;;;;;;5010454;28;20597;-56
2022/12/19 08:51:59;;;;;;;66.88;25.30;;;-2.70;99.90;;;;;;5010340;28;20018;-56
2022/12/19 08:54:26;;;;;;;55.05;23.67;;;-2.60;99.90;;;;;;4995096;28;20367;-57
2022/12/19 08:56:51;;;;;;;74.47;25.98;;;-2.50;99.90;;;;;;5010443;28;20502;-57
2022/12/19 08:59:17;;;;;;;63.92;26.17;;;-2.50;99.90;;;;;;4995109;28;20048;-56
2022/12/19 09:01:43;;;;;;;67.35;25.42;;;-2.50;99.90;;;;;;5010816;28;20513;-56
2022/12/19 09:04:09;;;;;;;68.78;26.10;;;-2.40;99.90;;;;;;5009809;28;20540;-57
2022/12/19 09:06:35;;;;;;;67.65;26.85;;;-2.40;99.90;;;;;;5009521;28;20141;-58
2022/12/19 09:09:02;;;;;;;64.80;26.73;;;-2.30;99.90;;;;;;5009357;28;20042;-56
2022/12/19 09:11:28;;;;;;;65.40;27.15;;;-2.40;99.90;;;;;;5010047;28;20049;-57
2022/12/19 09:13:55;;;;;;;56.58;23.50;;;-2.30;99.90;;;;;;5009908;28;20064;-58
2022/12/19 09:16:23;;;;;;;69.60;26.33;;;-2.30;99.90;;;;;;5009245;28;20091;-57
2022/12/19 09:18:51;;;;;;;69.50;27.65;;;-2.30;99.90;;;;;;5010489;28;20088;-58
2022/12/19 09:21:18;;;;;;;61.75;25.10;;;-2.30;99.90;;;;;;5009102;28;20033;-58
2022/12/19 09:23:52;;;;;;;65.57;26.40;;;-2.30;99.90;;;;;;5009003;28;20022;-56
2022/12/19 09:26:20;;;;;;;65.25;27.23;;;-2.20;99.90;;;;;;5009544;28;20030;-57
2022/12/19 09:28:46;;;;;;;66.72;24.77;;;-2.20;99.90;;;;;;5009468;28;20036;-57
2022/12/19 09:31:15;;;;;;;57.08;22.63;;;-2.20;99.90;;;;;;5009703;28;20649;-58
2022/12/19 09:33:41;;;;;;;64.60;25.25;;;-2.10;99.90;;;;;;5009349;28;20061;-56
2022/12/19 09:36:10;;;;;;;68.18;27.48;;;-2.10;99.90;;;;;;5010159;28;20077;-58
2022/12/19 09:38:36;;;;;;;65.80;26.85;;;-2.10;99.90;;;;;;5007479;28;20129;-58
2022/12/19 09:41:20;;;;;;;64.35;27.77;;;-2.00;99.90;;;;;;5010194;28;20151;-58
2022/12/19 09:44:16;;;;;;;67.32;26.92;;;-2.00;99.90;;;;;;5009151;28;20394;-57
2022/12/19 09:46:50;;;;;;;63.97;23.73;;;-1.90;99.90;;;;;;5008733;28;20069;-57
2022/12/19 09:49:22;;;;;;;62.22;24.63;;;-1.90;99.90;;;;;;5005976;28;20034;-56
2022/12/19 09:52:05;;;;;;;62.88;25.83;;;-1.80;99.90;;;;;;5011611;28;20041;-57
2022/12/19 09:54:41;;;;;;;60.22;24.77;;;-1.80;99.90;;;;;;5008924;28;20502;-57
2022/12/19 09:57:16;;;;;;;61.30;24.35;;;-1.80;99.90;;;;;;5009308;28;20046;-56
2022/12/19 09:59:47;;;;;;;57.72;23.90;;;-1.70;99.90;;;;;;5009482;28;20526;-57
2022/12/19 10:02:32;;;;;;;57.88;26.33;;;-1.70;99.90;;;;;;5009039;28;20068;-57
2022/12/19 10:05:31;;;;;;;62.30;24.42;;;-1.70;99.90;;;;;;5009914;28;20037;-57
2022/12/19 10:07:56;;;;;;;61.45;26.63;;;-1.60;99.90;;;;;;5009849;28;20026;-57
2022/12/19 10:10:28;;;;;;;58.65;25.23;;;-1.60;99.90;;;;;;5010122;28;20091;-57
2022/12/19 10:12:53;;;;;;;;;;;-1.60;99.90;;;;;;5010616;28;20117;-57
2022/12/19 10:15:26;;;;;;;59.60;23.45;;;-1.60;99.90;;;;;;4998609;28;20024;-57
2022/12/19 10:17:58;;;;;;;57.72;24.48;;;-1.50;99.90;;;;;;5008810;28;20303;-58
2022/12/19 10:20:29;;;;;;;64.43;26.38;;;-1.50;99.90;;;;;;5008899;28;20524;-56
2022/12/19 10:23:20;;;;;;;60.97;25.83;;;-1.40;99.90;;;;;;5009206;28;20058;-59
2022/12/19 10:25:50;;;;;;;50.63;22.58;;;-1.40;99.90;;;;;;5009145;28;20038;-58
2022/12/19 10:28:27;;;;;;;54.42;25.27;;;-1.40;99.90;;;;;;5008563;28;20488;-57
2022/12/19 10:31:18;;;;;;;62.83;25.92;;;-1.40;99.90;;;;;;5006375;28;20038;-59
2022/12/19 10:34:12;;;;;;;59.75;24.88;;;-1.40;99.90;;;;;;5009975;28;20494;-58
2022/12/19 10:36:48;;;;;;;54.03;23.95;;;-1.40;99.90;;;;;;4981297;28;20265;-57
2022/12/19 10:39:24;;;;;;;57.90;23.73;;;-1.40;99.90;;;;;;5007186;28;20172;-58
2022/12/19 10:41:55;;;;;;;62.65;26.52;;;-1.30;99.90;;;;;;5009169;28;20030;-58
2022/12/19 10:44:21;;;;;;;57.60;23.30;;;-1.40;99.90;;;;;;5008990;28;20124;-58
2022/12/19 10:46:49;;;;;;;62.28;25.55;;;-1.40;99.90;;;;;;5008328;28;20509;-57
2022/12/19 10:49:17;;;;;;;59.50;23.35;;;-1.30;99.90;;;;;;5008336;28;20080;-58
2022/12/19 10:51:55;;;;;;;72.32;25.52;;;-1.30;99.90;;;;;;5009225;28;20112;-57
2022/12/19 10:54:36;;;;;;;69.05;26.60;;;-1.40;99.90;;;;;;5008041;28;20026;-58
2022/12/19 10:57:17;;;;;;;59.10;24.60;;;-1.30;99.90;;;;;;5007569;28;20026;-58
2022/12/19 11:00:05;;;;;;;56.20;23.52;;;-1.40;99.90;;;;;;5006089;28;20045;-58
2022/12/19 11:02:45;;;;;;;60.22;26.20;;;-1.40;99.90;;;;;;5008218;28;20010;-58
2022/12/19 11:05:29;;;;;;;68.90;27.90;;;-1.30;99.90;;;;;;4997525;28;20030;-58
2022/12/19 11:08:06;;;;;;;61.78;26.23;;;-1.30;99.90;;;;;;5008444;28;20498;-57
2022/12/19 11:10:39;;;;;;;55.67;24.02;;;-1.20;99.90;;;;;;5008138;28;20074;-58
2022/12/19 11:13:20;;;;;;;63.03;24.38;;;-1.20;99.90;;;;;;5010581;28;20092;-58
2022/12/19 11:15:51;;;;;;;56.72;23.85;;;-1.20;99.90;;;;;;4986486;28;20030;-58
2022/12/19 11:18:17;;;;;;;56.38;24.50;;;-1.10;99.90;;;;;;5008080;28;20144;-57
2022/12/19 11:20:59;;;;;;;71.07;26.15;;;-1.20;99.90;;;;;;5008608;28;20589;-57
2022/12/19 11:23:27;;;;;;;68.05;27.25;;;-1.10;99.90;;;;;;5006918;28;20072;-58
2022/12/19 11:25:58;;;;;;;67.35;26.73;;;-1.20;99.90;;;;;;5008683;28;20030;-57
2022/12/19 11:28:30;;;;;;;58.80;24.58;;;-1.10;99.90;;;;;;5009033;28;20030;-58
2022/12/19 11:31:02;;;;;;;58.72;25.45;;;-1.10;99.90;;;;;;5008476;28;20032;-58
2022/12/19 11:33:28;;;;;;;69.60;24.80;;;-1.10;99.90;;;;;;5009196;28;20014;-57
2022/12/19 11:35:58;;;;;;;63.70;26.88;;;-1.10;99.90;;;;;;5007783;28;20510;-57
2022/12/19 11:38:43;;;;;;;71.47;27.58;;;-1.00;99.90;;;;;;5008272;28;20076;-58
2022/12/19 11:41:45;;;;;;;67.25;27.27;;;-1.00;99.90;;;;;;5007330;28;20030;-58
2022/12/19 11:44:17;;;;;;;;;;;-1.00;99.90;;;;;;5006204;28;20038;-57
2022/12/19 11:47:06;;;;;;;59.65;25.45;;;-1.00;99.90;;;;;;5006402;28;19931;-57
2022/12/19 11:49:43;;;;;;;68.10;26.63;;;-1.00;99.90;;;;;;4990712;28;20026;-58
2022/12/19 11:52:42;;;;;;;66.13;27.25;;;-1.00;99.90;;;;;;5007587;28;20037;-56
2022/12/19 11:55:42;;;;;;;66.55;27.40;;;-1.00;99.90;;;;;;5008126;28;20025;-57
2022/12/19 11:58:12;;;;;;;65.78;26.77;;;-0.90;99.90;;;;;;4997327;28;20065;-58
2022/12/19 12:00:52;;;;;;;65.70;27.35;;;-0.90;99.90;;;;;;5000430;28;20045;-57
2022/12/19 12:03:56;;;;;;;57.67;24.53;;;-0.80;99.90;;;;;;4993844;28;20076;-57
2022/12/19 12:06:24;;;;;;;62.80;25.13;;;-0.70;99.90;;;;;;5009543;28;20360;-58
2022/12/19 12:08:59;;;;;;;64.80;25.90;;;-0.70;99.90;;;;;;5006980;28;20450;-57
2022/12/19 12:11:48;;;;;;;55.60;24.10;;;-0.60;99.90;;;;;;5009115;28;20034;-58
2022/12/19 12:14:20;;;;;;;58.50;24.35;;;-0.60;99.90;;;;;;4973714;28;20030;-58
2022/12/19 12:17:17;;;;;;;66.85;27.73;;;-0.50;99.90;;;;;;4997254;28;20053;-58
2022/12/19 12:20:00;;;;;;;59.58;24.67;;;-0.50;99.90;;;;;;5006995;28;20034;-58
2022/12/19 12:23:12;;;;;;;59.55;24.42;;;-0.50;99.90;;;;;;5007165;28;20033;-58
2022/12/19 12:25:56;;;;;;;;;;;-0.40;99.90;;;;;;5008099;28;20033;-58
2022/12/19 12:28:43;;;;;;;65.85;25.60;;;-0.40;99.90;;;;;;5007517;28;19913;-58
2022/12/19 12:31:44;;;;;;;54.72;24.77;;;-0.40;99.90;;;;;;5006740;28;20397;-56
2022/12/19 12:34:40;;;;;;;58.03;24.10;;;-0.40;99.90;;;;;;4987744;28;20045;-58
2022/12/19 12:37:26;;;;;;;55.17;24.85;;;-0.30;99.90;;;;;;5006240;28;20084;-58
2022/12/19 12:39:52;;;;;;;62.15;24.70;;;-0.30;99.90;;;;;;5004698;28;20029;-57
2022/12/19 12:42:17;;;;;;;59.75;24.17;;;-0.30;99.90;;;;;;5006780;28;20030;-58
2022/12/19 12:44:45;;;;;;;63.22;26.05;;;-0.30;99.90;;;;;;5007944;28;20030;-56
2022/12/19 12:47:19;;;;;;;61.80;25.75;;;-0.30;99.90;;;;;;5008395;28;20183;-58
2022/12/19 12:49:59;;;;;;;61.08;26.45;;;-0.20;99.90;;;;;;5006892;28;20019;-57
2022/12/19 12:52:46;;;;;;;64.07;26.00;;;-0.20;99.90;;;;;;5007057;28;20109;-57